sensor_id;sensor_type;location;lat;lon;timestamp;pressure;altitude;pressure_sealevel;temperature;humidity
36630;BME280;36256;42.154;23.002;2023-04-08T00:00:03;97272.63;;;8.71;67.55
36630;BME280;36256;42.154;23.002;2023-04-08T00:02:31;97268.00;;;8.64;67.76
36630;BME280;36256;42.154;23.002;2023-04-08T00:04:58;97258.50;;;8.62;67.87
36630;BME280;36256;42.154;23.002;2023-04-08T00:07:25;97280.34;;;8.67;67.83
36630;BME280;36256;42.154;23.002;2023-04-08T00:09:52;97275.28;;;8.62;68.94
36630;BME280;36256;42.154;23.002;2023-04-08T00:12:18;97279.31;;;8.61;69.49
36630;BME280;36256;42.154;23.002;2023-04-08T00:14:45;97277.94;;;8.53;70.37
36630;BME280;36256;42.154;23.002;2023-04-08T00:17:11;97288.44;;;8.49;70.48
36630;BME280;36256;42.154;23.002;2023-04-08T00:19:38;97283.72;;;8.46;70.78
36630;BME280;36256;42.154;23.002;2023-04-08T00:22:05;97282.69;;;8.40;71.14
36630;BME280;36256;42.154;23.002;2023-04-08T00:24:32;97285.47;;;8.40;70.96
36630;BME280;36256;42.154;23.002;2023-04-08T00:26:58;97278.22;;;8.42;71.04
36630;BME280;36256;42.154;23.002;2023-04-08T00:29:26;97278.75;;;8.37;71.91
36630;BME280;36256;42.154;23.002;2023-04-08T00:31:52;97272.28;;;8.40;70.55
36630;BME280;36256;42.154;23.002;2023-04-08T00:34:19;97272.81;;;8.35;69.56
36630;BME280;36256;42.154;23.002;2023-04-08T00:36:46;97270.28;;;8.25;70.12
36630;BME280;36256;42.154;23.002;2023-04-08T00:39:13;97270.38;;;8.21;69.48
36630;BME280;36256;42.154;23.002;2023-04-08T00:41:40;97274.84;;;8.19;69.70
36630;BME280;36256;42.154;23.002;2023-04-08T00:44:06;97270.66;;;8.27;71.72
36630;BME280;36256;42.154;23.002;2023-04-08T00:46:35;97268.44;;;8.34;70.22
36630;BME280;36256;42.154;23.002;2023-04-08T00:49:02;97263.75;;;8.31;69.76
36630;BME280;36256;42.154;23.002;2023-04-08T00:51:29;97270.13;;;8.32;70.17
36630;BME280;36256;42.154;23.002;2023-04-08T00:53:59;97267.00;;;8.30;72.43
36630;BME280;36256;42.154;23.002;2023-04-08T00:56:26;97273.69;;;8.32;73.13
36630;BME280;36256;42.154;23.002;2023-04-08T00:58:53;97279.72;;;8.31;71.57
36630;BME280;36256;42.154;23.002;2023-04-08T01:01:26;97288.22;;;8.27;70.43
36630;BME280;36256;42.154;23.002;2023-04-08T01:04:06;97283.13;;;8.22;70.21
36630;BME280;36256;42.154;23.002;2023-04-08T01:06:43;97293.84;;;8.24;70.68
36630;BME280;36256;42.154;23.002;2023-04-08T01:09:12;97293.84;;;8.24;72.55
36630;BME280;36256;42.154;23.002;2023-04-08T01:11:43;97293.16;;;8.20;72.40
36630;BME280;36256;42.154;23.002;2023-04-08T01:14:17;97305.91;;;8.21;73.25
36630;BME280;36256;42.154;23.002;2023-04-08T01:16:46;97304.34;;;8.20;72.75
36630;BME280;36256;42.154;23.002;2023-04-08T01:19:45;97294.22;;;8.10;73.72
36630;BME280;36256;42.154;23.002;2023-04-08T01:22:28;97312.19;;;8.25;73.05
36630;BME280;36256;42.154;23.002;2023-04-08T01:25:03;97315.38;;;8.27;72.88
36630;BME280;36256;42.154;23.002;2023-04-08T01:27:31;97325.84;;;8.23;72.89
36630;BME280;36256;42.154;23.002;2023-04-08T01:30:00;97322.69;;;8.21;72.77
36630;BME280;36256;42.154;23.002;2023-04-08T01:32:28;97337.88;;;8.20;71.99
36630;BME280;36256;42.154;23.002;2023-04-08T01:34:57;97328.28;;;8.21;71.95
36630;BME280;36256;42.154;23.002;2023-04-08T01:37:25;97273.00;;;7.80;71.37
36630;BME280;36256;42.154;23.002;2023-04-08T01:39:54;97304.88;;;7.99;73.13
36630;BME280;36256;42.154;23.002;2023-04-08T01:42:25;97330.91;;;8.12;73.22
36630;BME280;36256;42.154;23.002;2023-04-08T01:44:55;97327.59;;;8.17;74.63
36630;BME280;36256;42.154;23.002;2023-04-08T01:47:23;97328.44;;;8.14;76.19
36630;BME280;36256;42.154;23.002;2023-04-08T01:49:51;97326.97;;;8.09;76.32
36630;BME280;36256;42.154;23.002;2023-04-08T01:52:21;97329.84;;;8.06;75.75
36630;BME280;36256;42.154;23.002;2023-04-08T01:54:48;97338.34;;;8.02;76.39
36630;BME280;36256;42.154;23.002;2023-04-08T01:57:21;97331.59;;;8.00;76.99
36630;BME280;36256;42.154;23.002;2023-04-08T01:59:50;97328.00;;;7.99;76.72
36630;BME280;36256;42.154;23.002;2023-04-08T02:02:21;97325.72;;;7.94;76.12
36630;BME280;36256;42.154;23.002;2023-04-08T02:04:50;97340.78;;;8.00;76.25
36630;BME280;36256;42.154;23.002;2023-04-08T02:07:17;97326.53;;;7.94;74.39
36630;BME280;36256;42.154;23.002;2023-04-08T02:09:44;97344.00;;;7.99;73.93
36630;BME280;36256;42.154;23.002;2023-04-08T02:12:11;97336.66;;;8.05;72.85
36630;BME280;36256;42.154;23.002;2023-04-08T02:14:37;97341.03;;;8.06;72.22
36630;BME280;36256;42.154;23.002;2023-04-08T02:17:08;97318.50;;;7.97;72.45
36630;BME280;36256;42.154;23.002;2023-04-08T02:22:23;97341.28;;;8.11;71.69
36630;BME280;36256;42.154;23.002;2023-04-08T02:24:51;97334.94;;;8.11;71.54
36630;BME280;36256;42.154;23.002;2023-04-08T02:27:18;97331.94;;;8.02;72.33
36630;BME280;36256;42.154;23.002;2023-04-08T02:29:46;97336.16;;;7.93;76.55
36630;BME280;36256;42.154;23.002;2023-04-08T02:32:15;97344.19;;;7.91;77.27
36630;BME280;36256;42.154;23.002;2023-04-08T02:34:42;97338.75;;;7.84;78.26
36630;BME280;36256;42.154;23.002;2023-04-08T02:37:09;97333.94;;;7.85;78.63
36630;BME280;36256;42.154;23.002;2023-04-08T02:39:36;97336.06;;;7.81;79.48
36630;BME280;36256;42.154;23.002;2023-04-08T02:42:03;97331.75;;;7.76;79.33
36630;BME280;36256;42.154;23.002;2023-04-08T02:44:30;97335.06;;;7.71;80.04
36630;BME280;36256;42.154;23.002;2023-04-08T02:46:57;97332.28;;;7.71;79.34
36630;BME280;36256;42.154;23.002;2023-04-08T02:49:24;97325.97;;;7.67;80.30
36630;BME280;36256;42.154;23.002;2023-04-08T02:51:50;97324.78;;;7.68;78.74
36630;BME280;36256;42.154;23.002;2023-04-08T02:54:17;97320.41;;;7.67;78.22
36630;BME280;36256;42.154;23.002;2023-04-08T02:56:43;97310.47;;;7.66;78.36
36630;BME280;36256;42.154;23.002;2023-04-08T02:59:10;97312.03;;;7.67;78.00
36630;BME280;36256;42.154;23.002;2023-04-08T03:01:37;97304.88;;;7.66;77.75
36630;BME280;36256;42.154;23.002;2023-04-08T03:04:04;97302.94;;;7.63;78.03
36630;BME280;36256;42.154;23.002;2023-04-08T03:06:30;97308.88;;;7.65;78.03
36630;BME280;36256;42.154;23.002;2023-04-08T03:08:57;97304.94;;;7.63;79.10
36630;BME280;36256;42.154;23.002;2023-04-08T03:11:24;97309.91;;;7.55;82.67
36630;BME280;36256;42.154;23.002;2023-04-08T03:13:51;97312.34;;;7.53;82.72
36630;BME280;36256;42.154;23.002;2023-04-08T03:16:18;97314.25;;;7.40;84.05
36630;BME280;36256;42.154;23.002;2023-04-08T03:18:44;97322.97;;;7.42;83.92
36630;BME280;36256;42.154;23.002;2023-04-08T03:21:11;97312.59;;;7.43;81.94
36630;BME280;36256;42.154;23.002;2023-04-08T03:23:38;97311.00;;;7.42;80.94
36630;BME280;36256;42.154;23.002;2023-04-08T03:26:04;97314.94;;;7.44;80.59
36630;BME280;36256;42.154;23.002;2023-04-08T03:28:31;97324.56;;;7.43;81.15
36630;BME280;36256;42.154;23.002;2023-04-08T03:30:57;97318.09;;;7.46;81.40
36630;BME280;36256;42.154;23.002;2023-04-08T03:33:26;97322.88;;;7.46;81.51
36630;BME280;36256;42.154;23.002;2023-04-08T03:35:53;97307.06;;;7.39;82.02
36630;BME280;36256;42.154;23.002;2023-04-08T03:38:20;97323.53;;;7.53;82.19
36630;BME280;36256;42.154;23.002;2023-04-08T03:40:47;97320.72;;;7.53;83.44
36630;BME280;36256;42.154;23.002;2023-04-08T03:43:14;97325.25;;;7.47;84.50
36630;BME280;36256;42.154;23.002;2023-04-08T03:45:40;97323.81;;;7.39;84.58
36630;BME280;36256;42.154;23.002;2023-04-08T03:48:07;97324.25;;;7.38;85.18
36630;BME280;36256;42.154;23.002;2023-04-08T03:50:34;97321.22;;;7.32;84.78
36630;BME280;36256;42.154;23.002;2023-04-08T03:53:01;97333.06;;;7.36;83.67
36630;BME280;36256;42.154;23.002;2023-04-08T03:55:27;97329.56;;;7.32;83.50
36630;BME280;36256;42.154;23.002;2023-04-08T03:57:54;97328.78;;;7.32;85.39
36630;BME280;36256;42.154;23.002;2023-04-08T04:00:21;97322.59;;;7.24;85.74
36630;BME280;36256;42.154;23.002;2023-04-08T04:02:47;97325.78;;;7.23;86.24
36630;BME280;36256;42.154;23.002;2023-04-08T04:05:14;97323.44;;;7.21;85.92
36630;BME280;36256;42.154;23.002;2023-04-08T04:07:41;97319.34;;;7.26;83.86
36630;BME280;36256;42.154;23.002;2023-04-08T04:10:08;97310.41;;;7.14;84.86
36630;BME280;36256;42.154;23.002;2023-04-08T04:12:35;97321.00;;;7.23;85.85
36630;BME280;36256;42.154;23.002;2023-04-08T04:15:02;97320.19;;;7.23;86.74
36630;BME280;36256;42.154;23.002;2023-04-08T04:17:29;97322.22;;;7.22;86.51
36630;BME280;36256;42.154;23.002;2023-04-08T04:19:56;97311.78;;;7.26;84.99
36630;BME280;36256;42.154;23.002;2023-04-08T04:22:22;97318.56;;;7.25;85.20
36630;BME280;36256;42.154;23.002;2023-04-08T04:24:49;97315.28;;;7.30;83.60
36630;BME280;36256;42.154;23.002;2023-04-08T04:27:16;97315.09;;;7.37;83.21
36630;BME280;36256;42.154;23.002;2023-04-08T04:29:43;97316.69;;;7.38;83.79
36630;BME280;36256;42.154;23.002;2023-04-08T04:32:09;97315.09;;;7.37;84.48
36630;BME280;36256;42.154;23.002;2023-04-08T04:34:36;97324.00;;;7.32;86.26
36630;BME280;36256;42.154;23.002;2023-04-08T04:37:03;97324.13;;;7.25;86.62
36630;BME280;36256;42.154;23.002;2023-04-08T04:39:29;97318.56;;;7.25;87.12
36630;BME280;36256;42.154;23.002;2023-04-08T04:41:56;97321.78;;;7.24;88.42
36630;BME280;36256;42.154;23.002;2023-04-08T04:44:23;97317.75;;;7.25;88.82
36630;BME280;36256;42.154;23.002;2023-04-08T04:46:49;97328.16;;;7.24;89.28
36630;BME280;36256;42.154;23.002;2023-04-08T04:49:16;97320.84;;;7.30;89.41
36630;BME280;36256;42.154;23.002;2023-04-08T04:51:43;97331.13;;;7.33;88.35
36630;BME280;36256;42.154;23.002;2023-04-08T04:54:09;97325.91;;;7.35;89.23
36630;BME280;36256;42.154;23.002;2023-04-08T04:56:36;97333.34;;;7.42;87.79
36630;BME280;36256;42.154;23.002;2023-04-08T04:59:02;97326.13;;;7.44;87.73
36630;BME280;36256;42.154;23.002;2023-04-08T05:01:30;97330.41;;;7.49;86.53
36630;BME280;36256;42.154;23.002;2023-04-08T05:03:57;97329.03;;;7.57;85.16
36630;BME280;36256;42.154;23.002;2023-04-08T05:06:24;97314.44;;;7.49;85.16
36630;BME280;36256;42.154;23.002;2023-04-08T05:08:52;97327.03;;;7.57;84.04
36630;BME280;36256;42.154;23.002;2023-04-08T05:11:19;97329.13;;;7.69;83.46
36630;BME280;36256;42.154;23.002;2023-04-08T05:13:47;97334.19;;;7.74;82.72
36630;BME280;36256;42.154;23.002;2023-04-08T05:16:13;97335.69;;;7.79;82.99
36630;BME280;36256;42.154;23.002;2023-04-08T05:18:40;97335.06;;;7.71;83.50
36630;BME280;36256;42.154;23.002;2023-04-08T05:21:07;97333.50;;;7.70;83.70
36630;BME280;36256;42.154;23.002;2023-04-08T05:23:34;97332.72;;;7.70;83.92
36630;BME280;36256;42.154;23.002;2023-04-08T05:26:00;97330.88;;;7.79;83.67
36630;BME280;36256;42.154;23.002;2023-04-08T05:28:27;97330.13;;;7.79;83.77
36630;BME280;36256;42.154;23.002;2023-04-08T05:30:54;97334.66;;;7.89;83.11
36630;BME280;36256;42.154;23.002;2023-04-08T05:33:21;97331.84;;;8.05;82.00
36630;BME280;36256;42.154;23.002;2023-04-08T05:35:47;97333.06;;;8.20;79.93
36630;BME280;36256;42.154;23.002;2023-04-08T05:38:14;97327.38;;;8.24;79.76
36630;BME280;36256;42.154;23.002;2023-04-08T05:40:41;97330.50;;;8.29;79.62
36630;BME280;36256;42.154;23.002;2023-04-08T05:43:07;97331.34;;;8.42;77.78
36630;BME280;36256;42.154;23.002;2023-04-08T05:45:34;97331.50;;;8.51;76.19
36630;BME280;36256;42.154;23.002;2023-04-08T05:48:00;97328.06;;;8.60;77.55
36630;BME280;36256;42.154;23.002;2023-04-08T05:50:27;97325.19;;;8.63;76.97
36630;BME280;36256;42.154;23.002;2023-04-08T05:52:54;97327.53;;;8.65;75.41
36630;BME280;36256;42.154;23.002;2023-04-08T05:55:21;97320.63;;;8.69;77.00
36630;BME280;36256;42.154;23.002;2023-04-08T05:57:47;97332.69;;;8.66;75.75
36630;BME280;36256;42.154;23.002;2023-04-08T06:00:14;97327.19;;;8.63;73.38
36630;BME280;36256;42.154;23.002;2023-04-08T06:02:42;97321.50;;;8.66;74.69
36630;BME280;36256;42.154;23.002;2023-04-08T06:05:09;97320.53;;;8.73;72.17
36630;BME280;36256;42.154;23.002;2023-04-08T06:07:36;97320.53;;;8.73;73.59
36630;BME280;36256;42.154;23.002;2023-04-08T06:10:02;97322.34;;;8.80;71.31
36630;BME280;36256;42.154;23.002;2023-04-08T06:12:34;97323.25;;;8.89;70.76
36630;BME280;36256;42.154;23.002;2023-04-08T06:15:01;97317.28;;;9.03;70.32
36630;BME280;36256;42.154;23.002;2023-04-08T06:17:27;97309.00;;;9.12;69.05
36630;BME280;36256;42.154;23.002;2023-04-08T06:19:54;97319.56;;;9.21;69.45
36630;BME280;36256;42.154;23.002;2023-04-08T06:22:21;97315.22;;;9.32;69.47
36630;BME280;36256;42.154;23.002;2023-04-08T06:24:47;97311.56;;;9.35;70.66
36630;BME280;36256;42.154;23.002;2023-04-08T06:27:14;97311.56;;;9.35;69.03
36630;BME280;36256;42.154;23.002;2023-04-08T06:29:41;97309.75;;;9.41;68.27
36630;BME280;36256;42.154;23.002;2023-04-08T06:32:09;97313.47;;;9.51;69.69
36630;BME280;36256;42.154;23.002;2023-04-08T06:34:35;97302.25;;;9.51;67.12
36630;BME280;36256;42.154;23.002;2023-04-08T06:37:02;97305.53;;;9.75;65.20
36630;BME280;36256;42.154;23.002;2023-04-08T06:39:29;97302.03;;;9.96;64.66
36630;BME280;36256;42.154;23.002;2023-04-08T06:41:55;97304.38;;;10.10;63.83
36630;BME280;36256;42.154;23.002;2023-04-08T06:44:23;97292.94;;;10.17;63.13
36630;BME280;36256;42.154;23.002;2023-04-08T06:46:50;97290.50;;;10.53;63.28
36630;BME280;36256;42.154;23.002;2023-04-08T06:49:16;97266.31;;;10.68;59.04
36630;BME280;36256;42.154;23.002;2023-04-08T06:51:43;97282.41;;;10.89;59.46
36630;BME280;36256;42.154;23.002;2023-04-08T06:54:09;97286.44;;;10.88;61.54
36630;BME280;36256;42.154;23.002;2023-04-08T06:56:36;97269.13;;;10.90;58.75
36630;BME280;36256;42.154;23.002;2023-04-08T06:59:03;97276.75;;;11.11;57.52
36630;BME280;36256;42.154;23.002;2023-04-08T07:01:32;97277.16;;;11.22;59.22
36630;BME280;36256;42.154;23.002;2023-04-08T07:03:59;97277.34;;;11.28;59.31
36630;BME280;36256;42.154;23.002;2023-04-08T07:06:27;97274.72;;;11.33;58.38
36630;BME280;36256;42.154;23.002;2023-04-08T07:08:54;97277.06;;;11.65;60.15
36630;BME280;36256;42.154;23.002;2023-04-08T07:11:20;97284.50;;;11.81;57.91
36630;BME280;36256;42.154;23.002;2023-04-08T07:13:47;97276.06;;;11.81;57.96
36630;BME280;36256;42.154;23.002;2023-04-08T07:16:14;97285.59;;;11.53;59.16
36630;BME280;36256;42.154;23.002;2023-04-08T07:18:41;97291.88;;;11.57;59.81
36630;BME280;36256;42.154;23.002;2023-04-08T07:21:07;97288.72;;;11.55;60.13
36630;BME280;36256;42.154;23.002;2023-04-08T07:23:34;97301.94;;;11.67;59.50
36630;BME280;36256;42.154;23.002;2023-04-08T07:26:04;97300.00;;;11.64;60.55
36630;BME280;36256;42.154;23.002;2023-04-08T07:28:30;97291.56;;;11.64;60.60
36630;BME280;36256;42.154;23.002;2023-04-08T07:31:08;97307.84;;;12.00;60.34
36630;BME280;36256;42.154;23.002;2023-04-08T07:33:35;97305.50;;;12.56;59.59
36630;BME280;36256;42.154;23.002;2023-04-08T07:36:02;97300.81;;;12.89;57.08
36630;BME280;36256;42.154;23.002;2023-04-08T07:38:29;97299.38;;;13.39;57.57
36630;BME280;36256;42.154;23.002;2023-04-08T07:40:55;97293.31;;;13.82;55.29
36630;BME280;36256;42.154;23.002;2023-04-08T07:43:22;97299.56;;;13.86;55.32
36630;BME280;36256;42.154;23.002;2023-04-08T07:45:48;97298.06;;;13.67;56.21
36630;BME280;36256;42.154;23.002;2023-04-08T07:48:15;97294.41;;;14.17;55.38
36630;BME280;36256;42.154;23.002;2023-04-08T07:51:07;97297.25;;;14.74;53.75
36630;BME280;36256;42.154;23.002;2023-04-08T07:53:37;97285.56;;;15.34;53.33
36630;BME280;36256;42.154;23.002;2023-04-08T07:56:12;97270.16;;;15.06;51.48
36630;BME280;36256;42.154;23.002;2023-04-08T07:58:40;97278.31;;;14.42;55.04
36630;BME280;36256;42.154;23.002;2023-04-08T08:01:14;97286.41;;;14.49;54.05
36630;BME280;36256;42.154;23.002;2023-04-08T08:03:41;97285.28;;;14.23;53.97
36630;BME280;36256;42.154;23.002;2023-04-08T08:06:07;97297.28;;;14.08;53.54
36630;BME280;36256;42.154;23.002;2023-04-08T08:08:36;97300.78;;;13.94;54.84
36630;BME280;36256;42.154;23.002;2023-04-08T08:11:02;97289.47;;;13.62;54.40
36630;BME280;36256;42.154;23.002;2023-04-08T08:13:29;97293.03;;;13.71;54.04
36630;BME280;36256;42.154;23.002;2023-04-08T08:15:56;97293.16;;;13.26;53.35
36630;BME280;36256;42.154;23.002;2023-04-08T08:18:23;97286.56;;;13.02;53.70
36630;BME280;36256;42.154;23.002;2023-04-08T08:20:49;97278.91;;;13.29;54.13
36630;BME280;36256;42.154;23.002;2023-04-08T08:23:16;97285.66;;;13.23;54.29
36630;BME280;36256;42.154;23.002;2023-04-08T08:25:43;97286.88;;;13.04;55.10
36630;BME280;36256;42.154;23.002;2023-04-08T08:28:10;97288.78;;;13.16;54.22
36630;BME280;36256;42.154;23.002;2023-04-08T08:30:36;97293.78;;;13.12;54.45
36630;BME280;36256;42.154;23.002;2023-04-08T08:33:03;97293.13;;;12.99;56.31
36630;BME280;36256;42.154;23.002;2023-04-08T08:35:30;97285.34;;;12.94;55.10
36630;BME280;36256;42.154;23.002;2023-04-08T08:37:57;97292.06;;;13.05;54.55
36630;BME280;36256;42.154;23.002;2023-04-08T08:40:23;97290.31;;;12.99;55.13
36630;BME280;36256;42.154;23.002;2023-04-08T08:42:51;97285.66;;;12.78;54.95
36630;BME280;36256;42.154;23.002;2023-04-08T08:45:21;97270.94;;;12.74;55.33
36630;BME280;36256;42.154;23.002;2023-04-08T08:47:47;97291.31;;;13.05;55.35
36630;BME280;36256;42.154;23.002;2023-04-08T08:50:17;97274.06;;;13.30;54.72
36630;BME280;36256;42.154;23.002;2023-04-08T08:52:47;97284.47;;;13.48;54.80
36630;BME280;36256;42.154;23.002;2023-04-08T08:55:15;97274.38;;;13.74;52.96
36630;BME280;36256;42.154;23.002;2023-04-08T08:58:03;97279.84;;;14.19;52.96
36630;BME280;36256;42.154;23.002;2023-04-08T09:00:40;97266.78;;;14.31;50.44
36630;BME280;36256;42.154;23.002;2023-04-08T09:05:51;97262.03;;;14.28;51.57
36630;BME280;36256;42.154;23.002;2023-04-08T09:11:17;97250.13;;;14.80;50.28
36630;BME280;36256;42.154;23.002;2023-04-08T09:13:45;97248.88;;;14.95;48.80
36630;BME280;36256;42.154;23.002;2023-04-08T09:16:13;97234.28;;;14.97;50.46
36630;BME280;36256;42.154;23.002;2023-04-08T09:18:45;97239.59;;;15.62;47.84
36630;BME280;36256;42.154;23.002;2023-04-08T09:21:13;97244.66;;;15.73;45.23
36630;BME280;36256;42.154;23.002;2023-04-08T09:26:19;97231.56;;;15.32;46.58
36630;BME280;36256;42.154;23.002;2023-04-08T09:29:01;97228.72;;;15.17;46.65
36630;BME280;36256;42.154;23.002;2023-04-08T09:31:43;97256.69;;;15.15;47.38
36630;BME280;36256;42.154;23.002;2023-04-08T09:34:13;97269.53;;;15.02;45.73
36630;BME280;36256;42.154;23.002;2023-04-08T09:36:42;97265.78;;;14.81;46.75
36630;BME280;36256;42.154;23.002;2023-04-08T09:39:10;97261.50;;;14.85;46.77
36630;BME280;36256;42.154;23.002;2023-04-08T09:41:38;97268.16;;;14.82;47.13
36630;BME280;36256;42.154;23.002;2023-04-08T09:44:06;97267.03;;;14.42;46.78
36630;BME280;36256;42.154;23.002;2023-04-08T09:51:52;97262.06;;;14.75;46.53
36630;BME280;36256;42.154;23.002;2023-04-08T09:54:30;97242.81;;;14.88;44.51
36630;BME280;36256;42.154;23.002;2023-04-08T09:57:00;97253.00;;;15.09;43.41
36630;BME280;36256;42.154;23.002;2023-04-08T09:59:33;97259.78;;;14.88;45.31
36630;BME280;36256;42.154;23.002;2023-04-08T10:02:06;97243.06;;;15.28;44.93
36630;BME280;36256;42.154;23.002;2023-04-08T10:04:37;97246.56;;;15.23;43.23
36630;BME280;36256;42.154;23.002;2023-04-08T10:07:07;97242.06;;;15.31;44.42
36630;BME280;36256;42.154;23.002;2023-04-08T10:09:34;97242.47;;;15.10;43.11
36630;BME280;36256;42.154;23.002;2023-04-08T10:12:04;97231.16;;;14.95;42.64
36630;BME280;36256;42.154;23.002;2023-04-08T10:14:30;97233.50;;;15.11;42.97
36630;BME280;36256;42.154;23.002;2023-04-08T10:17:23;97232.44;;;15.23;43.38
36630;BME280;36256;42.154;23.002;2023-04-08T10:19:50;97226.28;;;15.10;42.61
36630;BME280;36256;42.154;23.002;2023-04-08T10:27:41;97222.53;;;14.75;42.49
36630;BME280;36256;42.154;23.002;2023-04-08T10:33:01;97228.41;;;15.01;42.41
36630;BME280;36256;42.154;23.002;2023-04-08T10:37:56;97225.66;;;14.77;43.36
36630;BME280;36256;42.154;23.002;2023-04-08T10:40:24;97220.16;;;14.97;43.31
36630;BME280;36256;42.154;23.002;2023-04-08T10:42:54;97220.44;;;15.28;43.15
36630;BME280;36256;42.154;23.002;2023-04-08T10:45:22;97206.31;;;15.28;42.19
36630;BME280;36256;42.154;23.002;2023-04-08T10:47:49;97217.94;;;15.45;41.85
36630;BME280;36256;42.154;23.002;2023-04-08T10:50:19;97209.16;;;15.28;41.90
36630;BME280;36256;42.154;23.002;2023-04-08T10:52:52;97203.66;;;14.95;41.75
36630;BME280;36256;42.154;23.002;2023-04-08T10:55:23;97203.28;;;15.03;41.55
36630;BME280;36256;42.154;23.002;2023-04-08T10:57:50;97203.09;;;15.21;41.87
36630;BME280;36256;42.154;23.002;2023-04-08T11:00:18;97200.97;;;15.30;41.00
36630;BME280;36256;42.154;23.002;2023-04-08T11:02:45;97185.09;;;15.18;41.66
36630;BME280;36256;42.154;23.002;2023-04-08T11:05:12;97191.97;;;15.17;40.49
36630;BME280;36256;42.154;23.002;2023-04-08T11:07:42;97191.91;;;15.26;41.80
36630;BME280;36256;42.154;23.002;2023-04-08T11:10:09;97166.25;;;15.15;42.35
36630;BME280;36256;42.154;23.002;2023-04-08T11:12:36;97184.38;;;15.38;42.40
36630;BME280;36256;42.154;23.002;2023-04-08T11:15:04;97185.53;;;15.31;40.36
36630;BME280;36256;42.154;23.002;2023-04-08T11:17:33;97181.84;;;15.25;41.84
36630;BME280;36256;42.154;23.002;2023-04-08T11:20:00;97186.03;;;15.15;41.49
36630;BME280;36256;42.154;23.002;2023-04-08T11:22:32;97168.22;;;15.09;42.47
36630;BME280;36256;42.154;23.002;2023-04-08T11:25:00;97169.94;;;15.21;41.65
36630;BME280;36256;42.154;23.002;2023-04-08T11:27:27;97169.66;;;15.19;41.04
36630;BME280;36256;42.154;23.002;2023-04-08T11:29:54;97169.28;;;15.12;42.33
36630;BME280;36256;42.154;23.002;2023-04-08T11:32:22;97175.59;;;15.21;42.44
36630;BME280;36256;42.154;23.002;2023-04-08T11:34:49;97169.00;;;14.95;42.25
36630;BME280;36256;42.154;23.002;2023-04-08T11:37:16;97168.22;;;15.09;41.84
36630;BME280;36256;42.154;23.002;2023-04-08T11:39:43;97159.25;;;15.11;41.42
36630;BME280;36256;42.154;23.002;2023-04-08T11:42:31;97172.59;;;15.10;42.17
36630;BME280;36256;42.154;23.002;2023-04-08T11:44:58;97167.78;;;14.87;41.80
36630;BME280;36256;42.154;23.002;2023-04-08T11:47:32;97167.03;;;14.86;42.31
36630;BME280;36256;42.154;23.002;2023-04-08T11:49:59;97167.97;;;14.69;42.17
36630;BME280;36256;42.154;23.002;2023-04-08T11:52:46;97162.72;;;14.91;44.02
36630;BME280;36256;42.154;23.002;2023-04-08T11:55:26;97163.34;;;14.95;42.56
36630;BME280;36256;42.154;23.002;2023-04-08T11:57:54;97167.34;;;15.18;42.47
36630;BME280;36256;42.154;23.002;2023-04-08T12:00:22;97161.16;;;15.34;44.02
36630;BME280;36256;42.154;23.002;2023-04-08T12:02:50;97161.38;;;15.30;41.15
36630;BME280;36256;42.154;23.002;2023-04-08T12:05:18;97141.19;;;15.08;41.66
36630;BME280;36256;42.154;23.002;2023-04-08T12:07:45;97150.25;;;15.12;43.85
36630;BME280;36256;42.154;23.002;2023-04-08T12:10:12;97143.94;;;14.88;45.42
36630;BME280;36256;42.154;23.002;2023-04-08T12:12:39;97145.78;;;14.91;44.23
36630;BME280;36256;42.154;23.002;2023-04-08T12:15:07;97142.56;;;14.98;46.29
36630;BME280;36256;42.154;23.002;2023-04-08T12:17:34;97153.78;;;14.92;47.74
36630;BME280;36256;42.154;23.002;2023-04-08T12:20:01;97161.69;;;15.03;49.71
36630;BME280;36256;42.154;23.002;2023-04-08T12:22:29;97166.06;;;14.89;47.33
36630;BME280;36256;42.154;23.002;2023-04-08T12:24:56;97160.97;;;14.93;48.80
36630;BME280;36256;42.154;23.002;2023-04-08T12:27:24;97157.56;;;14.75;49.22
36630;BME280;36256;42.154;23.002;2023-04-08T12:29:51;97160.03;;;14.82;50.93
36630;BME280;36256;42.154;23.002;2023-04-08T12:32:18;97157.09;;;14.91;48.22
36630;BME280;36256;42.154;23.002;2023-04-08T12:34:45;97152.63;;;14.99;50.51
36630;BME280;36256;42.154;23.002;2023-04-08T12:37:12;97143.66;;;15.01;50.52
36630;BME280;36256;42.154;23.002;2023-04-08T12:39:38;97137.31;;;15.20;48.68
36630;BME280;36256;42.154;23.002;2023-04-08T12:42:05;97121.69;;;15.39;50.26
36630;BME280;36256;42.154;23.002;2023-04-08T12:44:32;97126.44;;;15.62;50.18
36630;BME280;36256;42.154;23.002;2023-04-08T12:46:59;97123.13;;;15.64;49.59
36630;BME280;36256;42.154;23.002;2023-04-08T12:49:25;97125.03;;;15.73;49.38
36630;BME280;36256;42.154;23.002;2023-04-08T12:51:53;97102.09;;;15.50;44.07
36630;BME280;36256;42.154;23.002;2023-04-08T12:54:20;97102.66;;;15.54;43.76
36630;BME280;36256;42.154;23.002;2023-04-08T12:56:47;97103.38;;;15.69;42.17
36630;BME280;36256;42.154;23.002;2023-04-08T12:59:14;97107.72;;;15.85;43.61
36630;BME280;36256;42.154;23.002;2023-04-08T13:01:41;97095.91;;;15.87;42.39
36630;BME280;36256;42.154;23.002;2023-04-08T13:04:08;97093.53;;;15.80;42.76
36630;BME280;36256;42.154;23.002;2023-04-08T13:06:35;97092.38;;;15.92;43.03
36630;BME280;36256;42.154;23.002;2023-04-08T13:09:01;97092.00;;;15.84;42.01
36630;BME280;36256;42.154;23.002;2023-04-08T13:11:28;97096.59;;;15.61;42.45
36630;BME280;36256;42.154;23.002;2023-04-08T13:13:54;97110.22;;;15.14;44.41
36630;BME280;36256;42.154;23.002;2023-04-08T13:16:21;97117.72;;;14.87;45.41
36630;BME280;36256;42.154;23.002;2023-04-08T13:18:48;97116.34;;;14.54;46.43
36630;BME280;36256;42.154;23.002;2023-04-08T13:21:15;97120.72;;;14.16;47.45
36630;BME280;36256;42.154;23.002;2023-04-08T13:23:41;97106.53;;;14.26;47.70
36630;BME280;36256;42.154;23.002;2023-04-08T13:26:08;97123.84;;;14.18;48.03